createdAt,value
2018-10-03T00:00:04.086Z,969.8
2018-10-03T00:01:13.859Z,969.81
2018-10-03T00:02:23.626Z,969.81
2018-10-03T00:03:33.388Z,969.79
2018-10-03T00:04:42.881Z,969.8
2018-10-03T00:05:52.911Z,969.87
2018-10-03T00:07:02.409Z,969.94
2018-10-03T00:08:12.177Z,969.87
2018-10-03T00:09:22.256Z,969.88
2018-10-03T00:10:32.294Z,969.96
2018-10-03T00:11:41.524Z,969.95
2018-10-03T00:12:51.549Z,969.97
2018-10-03T00:14:01.311Z,970.03
2018-10-03T00:15:11.392Z,970.08
2018-10-03T00:16:21.421Z,970.07
2018-10-03T00:17:30.917Z,970.11
2018-10-03T00:18:40.681Z,970.15
2018-10-03T00:19:50.724Z,970.15
2018-10-03T00:21:00.540Z,970.21
2018-10-03T00:22:10.299Z,970.23
2018-10-03T00:23:20.133Z,970.24
2018-10-03T00:24:30.814Z,970.27
2018-10-03T00:25:40.580Z,970.34
2018-10-03T00:26:50.618Z,970.39
2018-10-03T00:28:00.690Z,970.38
2018-10-03T00:29:10.449Z,970.39
2018-10-03T00:30:19.943Z,970.42
2018-10-03T00:31:29.437Z,970.42
2018-10-03T00:32:39.467Z,970.44
2018-10-03T00:33:49.504Z,970.46
2018-10-03T00:34:59.528Z,970.49
2018-10-03T00:36:09.023Z,970.53
2018-10-03T00:37:19.064Z,970.51
2018-10-03T00:38:28.872Z,970.51
2018-10-03T00:39:38.904Z,970.53
2018-10-03T00:40:48.937Z,970.54
2018-10-03T00:41:58.985Z,970.51
2018-10-03T00:43:08.476Z,970.54
2018-10-03T00:44:18.240Z,970.62
2018-10-03T00:45:28.000Z,970.65
2018-10-03T00:46:38.029Z,970.59
2018-10-03T00:47:48.059Z,970.65
2018-10-03T00:48:57.817Z,970.69
2018-10-03T00:50:07.579Z,970.62
2018-10-03T00:51:17.343Z,970.63
2018-10-03T00:52:26.829Z,970.7
2018-10-03T00:53:36.336Z,970.77
2018-10-03T00:54:46.096Z,970.73
2018-10-03T00:55:56.168Z,970.84
2018-10-03T00:57:06.198Z,970.81
2018-10-03T00:58:15.694Z,970.81
2018-10-03T00:59:25.456Z,970.82
2018-10-03T01:00:35.485Z,970.92
2018-10-03T01:01:45.245Z,970.92
2018-10-03T01:02:55.009Z,970.92
2018-10-03T01:04:05.041Z,970.96
2018-10-03T01:05:15.073Z,970.98
2018-10-03T01:06:25.103Z,971.02
2018-10-03T01:07:37.132Z,970.99
2018-10-03T01:08:46.898Z,970.98
2018-10-03T01:09:56.656Z,971.04
2018-10-03T01:11:06.160Z,971.09
2018-10-03T01:12:15.923Z,971.14
2018-10-03T01:13:25.679Z,971.2
2018-10-03T01:14:35.438Z,971.22
2018-10-03T01:15:45.496Z,971.3
2018-10-03T01:16:55.264Z,971.29
2018-10-03T01:18:05.329Z,971.31
2018-10-03T01:19:15.149Z,971.35
2018-10-03T01:20:24.369Z,971.31
2018-10-03T01:21:34.400Z,971.35
2018-10-03T01:22:44.440Z,971.39
2018-10-03T01:23:54.474Z,971.43
2018-10-03T01:25:04.244Z,971.39
2018-10-03T01:26:14.300Z,971.47
2018-10-03T01:27:24.339Z,971.5
2018-10-03T01:28:34.101Z,971.61
2018-10-03T01:29:44.135Z,971.54
2018-10-03T01:30:54.165Z,971.56
2018-10-03T01:32:04.198Z,971.66
2018-10-03T01:33:13.957Z,971.63
2018-10-03T01:34:23.721Z,971.66
2018-10-03T01:35:33.226Z,971.7
2018-10-03T01:36:42.720Z,971.71
2018-10-03T01:37:51.948Z,971.76
2018-10-03T01:39:01.709Z,971.78
2018-10-03T01:40:11.756Z,971.8
2018-10-03T01:41:21.787Z,971.85
2018-10-03T01:42:31.547Z,971.85
2018-10-03T01:43:41.316Z,971.88
2018-10-03T01:44:50.859Z,971.92
2018-10-03T01:46:00.889Z,971.9
2018-10-03T01:47:10.659Z,971.93
2018-10-03T01:48:20.420Z,972.03
2018-10-03T01:49:30.183Z,972.05
2018-10-03T01:50:39.942Z,972.06
2018-10-03T01:51:49.431Z,972.13
2018-10-03T01:52:59.189Z,972.16
2018-10-03T01:54:08.954Z,972.21
2018-10-03T01:55:18.999Z,972.22
2018-10-03T01:56:29.027Z,972.23
2018-10-03T01:57:39.056Z,972.28
2018-10-03T01:58:49.152Z,972.26
2018-10-03T01:59:59.186Z,972.29
2018-10-03T02:01:08.970Z,972.3
2018-10-03T02:02:18.466Z,972.35
2018-10-03T02:03:28.223Z,972.35
2018-10-03T02:04:38.249Z,972.34
2018-10-03T02:05:48.279Z,972.36
2018-10-03T02:06:58.035Z,972.4
2018-10-03T02:08:07.524Z,972.42
2018-10-03T02:09:17.282Z,972.39
2018-10-03T02:10:26.786Z,972.38
2018-10-03T02:11:36.826Z,972.39
2018-10-03T02:12:46.851Z,972.36
2018-10-03T02:13:56.876Z,972.41
2018-10-03T02:15:06.643Z,972.42
2018-10-03T02:16:16.418Z,972.43
2018-10-03T02:17:26.453Z,972.46
2018-10-03T02:18:36.482Z,972.47
2018-10-03T02:19:46.513Z,972.52
2018-10-03T02:20:56.278Z,972.49
2018-10-03T02:22:06.318Z,972.51
2018-10-03T02:23:16.348Z,972.49
2018-10-03T02:24:25.567Z,972.52
2018-10-03T02:25:35.592Z,972.53
2018-10-03T02:26:45.623Z,972.52
2018-10-03T02:27:55.651Z,972.57
2018-10-03T02:29:05.151Z,972.67
2018-10-03T02:30:15.185Z,972.64
2018-10-03T02:31:24.956Z,972.67
2018-10-03T02:32:34.985Z,972.71
2018-10-03T02:33:45.022Z,972.72
2018-10-03T02:34:55.052Z,972.74
2018-10-03T02:36:04.819Z,972.75
2018-10-03T02:37:14.854Z,972.75
2018-10-03T02:38:24.610Z,972.79
2018-10-03T02:39:34.379Z,972.86
2018-10-03T02:40:44.149Z,972.82
2018-10-03T02:41:53.925Z,972.86
2018-10-03T02:43:03.707Z,972.91
2018-10-03T02:44:13.200Z,972.96
2018-10-03T02:45:23.231Z,972.99
2018-10-03T02:46:32.998Z,973.05
2018-10-03T02:47:43.030Z,973.06
2018-10-03T02:48:53.067Z,973.06
2018-10-03T02:50:02.837Z,973.06
2018-10-03T02:51:12.598Z,973.09
2018-10-03T02:52:21.840Z,973.08
2018-10-03T02:53:31.889Z,973.12
2018-10-03T02:54:41.659Z,973.08
2018-10-03T02:55:51.162Z,973.12
2018-10-03T02:57:01.194Z,973.08
2018-10-03T02:58:10.961Z,973.07
2018-10-03T02:59:20.995Z,973.14
2018-10-03T03:00:31.027Z,973.11
2018-10-03T03:01:40.350Z,973.09
2018-10-03T03:02:51.044Z,973.1
2018-10-03T03:04:01.076Z,973.1
2018-10-03T03:05:11.144Z,973.1
2018-10-03T03:06:21.184Z,973.08
2018-10-03T03:07:30.985Z,973.13
2018-10-03T03:08:41.109Z,973.12
2018-10-03T03:09:51.633Z,973.13
2018-10-03T03:11:01.678Z,973.15
2018-10-03T03:12:11.708Z,973.18
2018-10-03T03:13:21.746Z,973.17
2018-10-03T03:14:31.517Z,973.2
2018-10-03T03:15:41.276Z,973.22
2018-10-03T03:16:51.306Z,973.23
2018-10-03T03:18:01.068Z,973.25
2018-10-03T03:19:10.827Z,973.25
2018-10-03T03:20:20.614Z,973.32
2018-10-03T03:21:30.103Z,973.34
2018-10-03T03:22:40.159Z,973.37
2018-10-03T03:23:49.653Z,973.37
2018-10-03T03:24:59.426Z,973.4
2018-10-03T03:26:09.456Z,973.45
2018-10-03T03:27:19.487Z,973.48
2018-10-03T03:28:29.519Z,973.53
2018-10-03T03:29:39.585Z,973.54
2018-10-03T03:30:49.352Z,973.6
2018-10-03T03:31:59.389Z,973.55
2018-10-03T03:33:09.449Z,973.5
2018-10-03T03:34:19.486Z,973.59
2018-10-03T03:35:29.535Z,973.55
2018-10-03T03:36:39.296Z,973.55
2018-10-03T03:37:49.052Z,973.58
2018-10-03T03:38:59.084Z,973.56
2018-10-03T03:40:08.597Z,973.59
2018-10-03T03:41:18.102Z,973.56
2018-10-03T03:42:27.866Z,973.58
2018-10-03T03:43:37.891Z,973.65
2018-10-03T03:44:47.922Z,973.7
2018-10-03T03:45:57.687Z,973.64
2018-10-03T03:47:07.208Z,973.67
2018-10-03T03:48:16.970Z,973.69
2018-10-03T03:49:27.018Z,973.65
2018-10-03T03:50:36.780Z,973.73
2018-10-03T03:51:46.545Z,973.74
2018-10-03T03:52:56.328Z,973.79
2018-10-03T03:54:06.371Z,973.8
2018-10-03T03:55:16.151Z,973.82
2018-10-03T03:56:25.918Z,973.79
2018-10-03T03:57:35.680Z,973.86
2018-10-03T03:58:45.456Z,973.87
2018-10-03T03:59:55.505Z,973.88
2018-10-03T04:01:05.331Z,973.9
2018-10-03T04:02:15.373Z,973.94
2018-10-03T04:03:25.413Z,973.9
2018-10-03T04:04:34.910Z,973.96
2018-10-03T04:05:44.947Z,973.92
2018-10-03T04:06:54.718Z,973.91
2018-10-03T04:08:04.491Z,973.92
2018-10-03T04:09:14.250Z,973.91
2018-10-03T04:10:24.305Z,973.94
2018-10-03T04:11:34.342Z,973.91
2018-10-03T04:12:44.132Z,973.96
2018-10-03T04:13:53.896Z,974.02
2018-10-03T04:15:03.939Z,974.02
2018-10-03T04:16:13.719Z,974.05
2018-10-03T04:17:23.758Z,974.06
2018-10-03T04:18:33.522Z,974.1
2018-10-03T04:19:43.020Z,974.12
2018-10-03T04:20:53.050Z,974.11
2018-10-03T04:22:03.076Z,974.14
2018-10-03T04:23:13.109Z,974.14
2018-10-03T04:24:22.872Z,974.19
2018-10-03T04:25:32.633Z,974.18
2018-10-03T04:26:42.658Z,974.16
2018-10-03T04:27:52.713Z,974.22
2018-10-03T04:29:02.470Z,974.24
2018-10-03T04:30:12.504Z,974.25
2018-10-03T04:31:22.588Z,974.23
2018-10-03T04:32:32.621Z,974.23
2018-10-03T04:33:42.685Z,974.24
2018-10-03T04:34:52.721Z,974.25
2018-10-03T04:36:02.485Z,974.3
2018-10-03T04:37:12.250Z,974.23
2018-10-03T04:38:22.279Z,974.26
2018-10-03T04:39:32.045Z,974.21
2018-10-03T04:40:42.113Z,974.25
2018-10-03T04:41:52.149Z,974.27
2018-10-03T04:43:01.983Z,974.26
2018-10-03T04:44:12.018Z,974.28
2018-10-03T04:45:22.087Z,974.34
2018-10-03T04:46:31.856Z,974.29
2018-10-03T04:47:41.887Z,974.32
2018-10-03T04:48:51.974Z,974.34
2018-10-03T04:50:02.155Z,974.35
2018-10-03T04:51:11.914Z,974.35
2018-10-03T04:52:21.941Z,974.38
2018-10-03T04:53:31.967Z,974.42
2018-10-03T04:54:42.046Z,974.39
2018-10-03T04:55:51.807Z,974.5
2018-10-03T04:57:01.565Z,974.45
2018-10-03T04:58:11.594Z,974.52
2018-10-03T04:59:21.357Z,974.53
2018-10-03T05:00:30.902Z,974.52
2018-10-03T05:01:40.681Z,974.57
2018-10-03T05:02:50.705Z,974.58
2018-10-03T05:04:00.731Z,974.6
2018-10-03T05:05:10.496Z,974.63
2018-10-03T05:06:19.772Z,974.62
2018-10-03T05:07:29.799Z,974.6
2018-10-03T05:08:39.561Z,974.66
2018-10-03T05:09:49.595Z,974.68
2018-10-03T05:10:59.354Z,974.71
2018-10-03T05:12:09.578Z,974.79
2018-10-03T05:13:19.067Z,974.82
2018-10-03T05:14:28.296Z,974.8
2018-10-03T05:15:38.319Z,974.83
2018-10-03T05:16:48.337Z,974.82
2018-10-03T05:17:58.140Z,974.81
2018-10-03T05:19:07.902Z,974.77
2018-10-03T05:20:17.665Z,974.81
2018-10-03T05:21:27.159Z,974.8
2018-10-03T05:22:36.653Z,974.81
2018-10-03T05:23:46.742Z,974.81
2018-10-03T05:24:56.771Z,974.84
2018-10-03T05:26:06.265Z,974.83
2018-10-03T05:27:16.022Z,974.88
2018-10-03T05:28:25.509Z,974.89
2018-10-03T05:29:35.531Z,974.91
2018-10-03T05:30:45.023Z,974.92
2018-10-03T05:31:54.511Z,974.91
2018-10-03T05:33:04.268Z,974.92
2018-10-03T05:34:14.479Z,974.94
2018-10-03T05:35:24.570Z,974.93
2018-10-03T05:36:34.063Z,974.95
2018-10-03T05:37:44.089Z,974.98
2018-10-03T05:38:54.107Z,974.99
2018-10-03T05:40:04.134Z,975.01
2018-10-03T05:41:13.406Z,974.96
2018-10-03T05:42:23.167Z,974.98
2018-10-03T05:43:33.196Z,975
2018-10-03T05:44:42.951Z,975.03
2018-10-03T05:45:52.979Z,975.05
2018-10-03T05:47:03.065Z,975.08
2018-10-03T05:48:12.837Z,975.07
2018-10-03T05:49:23.171Z,975.12
2018-10-03T05:50:33.197Z,975.19
2018-10-03T05:51:42.967Z,975.17
2018-10-03T05:52:53.037Z,975.16
2018-10-03T05:54:03.066Z,975.16
2018-10-03T05:55:13.097Z,975.15
2018-10-03T05:56:23.128Z,975.15
2018-10-03T05:57:33.157Z,975.11
2018-10-03T05:58:42.692Z,975.15
2018-10-03T05:59:52.734Z,975.2
2018-10-03T06:01:02.485Z,975.25
2018-10-03T06:02:12.251Z,975.25
2018-10-03T06:03:22.272Z,975.26
2018-10-03T06:04:32.079Z,975.26
2018-10-03T06:05:42.110Z,975.28
2018-10-03T06:06:51.867Z,975.25
2018-10-03T06:08:01.630Z,975.23
2018-10-03T06:09:11.657Z,975.26
2018-10-03T06:10:21.512Z,975.27
2018-10-03T06:11:31.549Z,975.31
2018-10-03T06:12:41.305Z,975.31
2018-10-03T06:13:51.335Z,975.39
2018-10-03T06:15:01.374Z,975.43
2018-10-03T06:16:11.199Z,975.46
2018-10-03T06:17:21.230Z,975.49
2018-10-03T06:18:31.716Z,975.51
2018-10-03T06:19:41.961Z,975.52
2018-10-03T06:20:51.997Z,975.51
2018-10-03T06:22:01.544Z,975.54
2018-10-03T06:23:11.566Z,975.58
2018-10-03T06:24:21.652Z,975.56
2018-10-03T06:25:31.687Z,975.57
2018-10-03T06:26:41.712Z,975.57
2018-10-03T06:27:51.853Z,975.55
2018-10-03T06:29:01.970Z,975.58
2018-10-03T06:30:11.726Z,975.57
2018-10-03T06:31:21.751Z,975.64
2018-10-03T06:32:31.500Z,975.66
2018-10-03T06:33:41.032Z,975.66
2018-10-03T06:34:50.519Z,975.67
2018-10-03T06:36:00.285Z,975.72
2018-10-03T06:37:10.045Z,975.76
2018-10-03T06:38:19.806Z,975.78
2018-10-03T06:39:29.690Z,975.81
2018-10-03T06:40:40.035Z,975.87
2018-10-03T06:41:49.810Z,975.88
2018-10-03T06:43:00.114Z,975.9
2018-10-03T06:44:10.411Z,975.96
2018-10-03T06:45:20.739Z,975.9
2018-10-03T06:46:30.890Z,975.91
2018-10-03T06:47:40.641Z,975.92
2018-10-03T06:48:50.667Z,975.93
2018-10-03T06:50:00.706Z,975.96
2018-10-03T06:51:10.787Z,975.98
2018-10-03T06:52:20.897Z,975.96
2018-10-03T06:53:30.915Z,975.95
2018-10-03T06:54:40.934Z,976.01
2018-10-03T06:55:50.697Z,976.03
2018-10-03T06:57:00.540Z,976.11
2018-10-03T06:58:10.353Z,976.1
2018-10-03T06:59:20.382Z,976.14
2018-10-03T07:00:30.427Z,976.16
2018-10-03T07:01:40.185Z,976.18
2018-10-03T07:02:50.005Z,976.12
2018-10-03T07:04:00.038Z,976.14
2018-10-03T07:05:10.063Z,976.09
2018-10-03T07:06:20.090Z,976.09
2018-10-03T07:07:29.849Z,976.08
2018-10-03T07:08:39.390Z,976.14
2018-10-03T07:09:49.412Z,976.13
2018-10-03T07:10:59.438Z,976.12
2018-10-03T07:12:09.479Z,976.18
2018-10-03T07:13:19.238Z,976.15
2018-10-03T07:14:28.731Z,976.2
2018-10-03T07:15:38.755Z,976.17
2018-10-03T07:16:48.828Z,976.16
2018-10-03T07:17:58.860Z,976.2
2018-10-03T07:19:08.889Z,976.24
2018-10-03T07:20:19.073Z,976.26
2018-10-03T07:21:28.669Z,976.29
2018-10-03T07:22:38.705Z,976.32
2018-10-03T07:23:48.781Z,976.34
2018-10-03T07:24:57.998Z,976.35
2018-10-03T07:26:07.855Z,976.41
2018-10-03T07:27:18.513Z,976.41
2018-10-03T07:28:28.006Z,976.42
2018-10-03T07:29:37.498Z,976.48
2018-10-03T07:30:47.254Z,976.48
2018-10-03T07:31:57.336Z,976.49
2018-10-03T07:33:06.564Z,976.52
2018-10-03T07:34:16.591Z,976.53
2018-10-03T07:35:26.346Z,976.56
2018-10-03T07:36:36.104Z,976.59
2018-10-03T07:37:46.127Z,976.59
2018-10-03T07:38:55.884Z,976.59
2018-10-03T07:40:05.643Z,976.63
2018-10-03T07:41:15.424Z,976.61
2018-10-03T07:42:24.912Z,976.64
2018-10-03T07:43:34.454Z,976.63
2018-10-03T07:44:44.213Z,976.58
2018-10-03T07:45:53.977Z,976.61
2018-10-03T07:47:03.462Z,976.55
2018-10-03T07:48:13.492Z,976.55
2018-10-03T07:49:23.296Z,976.54
2018-10-03T07:50:33.339Z,976.56
2018-10-03T07:51:43.104Z,976.55
2018-10-03T07:52:52.595Z,976.58
2018-10-03T07:54:02.080Z,976.61
2018-10-03T07:55:11.951Z,976.64
2018-10-03T07:56:21.495Z,976.65
2018-10-03T07:57:31.906Z,976.69
2018-10-03T07:58:41.940Z,976.69
2018-10-03T07:59:52.146Z,976.64
2018-10-03T08:01:02.224Z,976.67
2018-10-03T08:02:11.719Z,976.67
2018-10-03T08:03:21.751Z,976.73
2018-10-03T08:04:31.501Z,976.71
2018-10-03T08:05:41.261Z,976.71
2018-10-03T08:06:51.073Z,976.71
2018-10-03T08:08:01.143Z,976.71
2018-10-03T08:09:10.913Z,976.72
2018-10-03T08:10:20.943Z,976.75
2018-10-03T08:11:30.971Z,976.77
2018-10-03T08:12:41.045Z,976.76
2018-10-03T08:13:51.082Z,976.73
2018-10-03T08:15:00.870Z,976.73
2018-10-03T08:16:10.648Z,976.71
2018-10-03T08:17:20.687Z,976.75
2018-10-03T08:18:31.333Z,976.77
2018-10-03T08:19:41.366Z,976.77
2018-10-03T08:20:51.388Z,976.75
2018-10-03T08:22:01.149Z,976.78
2018-10-03T08:23:11.194Z,976.78
2018-10-03T08:24:21.279Z,976.79
2018-10-03T08:25:31.100Z,976.76
2018-10-03T08:26:40.588Z,976.77
2018-10-03T08:27:50.347Z,976.76
2018-10-03T08:29:00.380Z,976.77
2018-10-03T08:30:10.636Z,976.78
2018-10-03T08:31:20.380Z,976.78
2018-10-03T08:32:30.531Z,976.78
2018-10-03T08:33:40.978Z,976.77
2018-10-03T08:34:50.733Z,976.82
2018-10-03T08:36:00.558Z,976.83
2018-10-03T08:37:10.582Z,976.88
2018-10-03T08:38:20.338Z,976.86
2018-10-03T08:39:30.502Z,976.88
2018-10-03T08:40:39.730Z,976.88
2018-10-03T08:41:49.862Z,976.89
2018-10-03T08:42:59.900Z,976.88
2018-10-03T08:44:09.681Z,976.88
2018-10-03T08:45:19.489Z,976.92
2018-10-03T08:46:29.154Z,976.94
2018-10-03T08:47:38.723Z,976.93
2018-10-03T08:48:48.215Z,976.96
2018-10-03T08:49:57.706Z,976.98
2018-10-03T08:51:07.204Z,976.97
2018-10-03T08:52:17.238Z,976.98
2018-10-03T08:53:27.053Z,977
2018-10-03T08:54:37.085Z,977.04
2018-10-03T08:55:46.596Z,977.07
2018-10-03T08:56:55.813Z,977.12
2018-10-03T08:58:05.923Z,977.12
2018-10-03T08:59:16.731Z,977.11
2018-10-03T09:00:26.227Z,977.09
2018-10-03T09:01:36.271Z,977.12
2018-10-03T09:02:46.030Z,977.12
2018-10-03T09:03:56.065Z,977.17
2018-10-03T09:05:05.291Z,977.15
2018-10-03T09:06:15.056Z,977.16
2018-10-03T09:07:24.819Z,977.14
2018-10-03T09:08:34.854Z,977.12
2018-10-03T09:09:44.618Z,977.11
2018-10-03T09:10:54.162Z,977.09
2018-10-03T09:12:03.927Z,977.15
2018-10-03T09:13:13.962Z,977.13
2018-10-03T09:14:23.775Z,977.15
2018-10-03T09:15:33.820Z,977.2
2018-10-03T09:16:43.948Z,977.18
2018-10-03T09:17:53.990Z,977.24
2018-10-03T09:19:03.756Z,977.21
2018-10-03T09:20:13.800Z,977.24
2018-10-03T09:21:23.840Z,977.32
2018-10-03T09:22:34.123Z,977.27
2018-10-03T09:23:44.157Z,977.28
2018-10-03T09:24:53.920Z,977.3
2018-10-03T09:26:03.947Z,977.32
2018-10-03T09:27:13.710Z,977.28
2018-10-03T09:28:23.932Z,977.31
2018-10-03T09:29:34.205Z,977.27
2018-10-03T09:30:44.279Z,977.29
2018-10-03T09:31:53.822Z,977.33
2018-10-03T09:33:03.588Z,977.36
2018-10-03T09:34:13.667Z,977.41
2018-10-03T09:35:23.703Z,977.39
2018-10-03T09:36:33.735Z,977.43
2018-10-03T09:37:43.779Z,977.44
2018-10-03T09:38:53.553Z,977.47
2018-10-03T09:40:03.317Z,977.5
2018-10-03T09:41:12.855Z,977.48
2018-10-03T09:42:22.896Z,977.42
2018-10-03T09:43:32.387Z,977.4
2018-10-03T09:44:42.304Z,977.42
2018-10-03T09:45:52.461Z,977.4
2018-10-03T09:47:02.237Z,977.45
2018-10-03T09:48:12.010Z,977.52
2018-10-03T09:49:21.509Z,977.47
2018-10-03T09:50:30.734Z,977.55
2018-10-03T09:51:40.555Z,977.53
2018-10-03T09:52:50.591Z,977.53
2018-10-03T09:54:00.371Z,977.52
2018-10-03T09:55:09.864Z,977.45
2018-10-03T09:56:19.625Z,977.49
2018-10-03T09:57:29.437Z,977.49
2018-10-03T09:58:38.935Z,977.56
2018-10-03T09:59:48.975Z,977.52
2018-10-03T10:00:58.902Z,977.58
2018-10-03T10:02:08.760Z,977.6
2018-10-03T10:03:18.860Z,977.58
2018-10-03T10:04:28.626Z,977.61
2018-10-03T10:05:38.120Z,977.62
2018-10-03T10:06:48.152Z,977.59
2018-10-03T10:07:57.913Z,977.61
2018-10-03T10:09:07.676Z,977.66
2018-10-03T10:10:17.241Z,977.65
2018-10-03T10:11:27.563Z,977.66
2018-10-03T10:12:38.624Z,977.64
2018-10-03T10:13:48.653Z,977.64
2018-10-03T10:14:58.682Z,977.65
2018-10-03T10:16:08.184Z,977.62
2018-10-03T10:17:18.217Z,977.65
2018-10-03T10:18:28.248Z,977.66
2018-10-03T10:19:38.017Z,977.68
2018-10-03T10:20:47.685Z,977.73
2018-10-03T10:21:58.274Z,977.7
2018-10-03T10:23:07.498Z,977.73
2018-10-03T10:24:17.534Z,977.77
2018-10-03T10:25:27.580Z,977.74
2018-10-03T10:26:37.395Z,977.75
2018-10-03T10:27:47.159Z,977.75
2018-10-03T10:28:57.188Z,977.75
2018-10-03T10:30:06.949Z,977.75
2018-10-03T10:31:16.985Z,977.76
2018-10-03T10:32:27.265Z,977.77
2018-10-03T10:33:37.505Z,977.77
2018-10-03T10:34:47.541Z,977.82
2018-10-03T10:35:57.574Z,977.84
2018-10-03T10:37:06.877Z,977.84
2018-10-03T10:38:16.696Z,977.88
2018-10-03T10:39:26.736Z,977.87
2018-10-03T10:40:36.949Z,977.85
2018-10-03T10:41:47.469Z,977.86
2018-10-03T10:42:56.972Z,977.9
2018-10-03T10:44:06.781Z,977.95
2018-10-03T10:45:16.813Z,977.95
2018-10-03T10:46:26.580Z,977.98
2018-10-03T10:47:36.628Z,977.99
2018-10-03T10:48:46.131Z,978.01
2018-10-03T10:49:55.683Z,978.07
2018-10-03T10:51:05.523Z,978.11
2018-10-03T10:52:15.022Z,978.15
2018-10-03T10:53:25.062Z,978.13
2018-10-03T10:54:35.092Z,978.14
2018-10-03T10:55:44.908Z,978.06
2018-10-03T10:56:54.943Z,978.12
2018-10-03T10:58:04.443Z,978.17
2018-10-03T10:59:14.475Z,978.1
2018-10-03T11:00:24.247Z,978.23
2018-10-03T11:01:34.348Z,978.16
2018-10-03T11:02:44.386Z,978.15
2018-10-03T11:03:54.420Z,978.18
2018-10-03T11:05:04.190Z,978.23
2018-10-03T11:06:13.966Z,978.19
2018-10-03T11:07:24.642Z,978.24
2018-10-03T11:08:34.415Z,978.3
2018-10-03T11:09:44.188Z,978.09
2018-10-03T11:10:53.964Z,978.25
2018-10-03T11:12:04.001Z,978.21
2018-10-03T11:13:13.549Z,978.33
2018-10-03T11:14:23.327Z,978.27
2018-10-03T11:15:33.439Z,978.3
2018-10-03T11:16:44.075Z,978.31
2018-10-03T11:17:54.064Z,978.33
2018-10-03T11:19:03.882Z,978.33
2018-10-03T11:20:13.436Z,978.28
2018-10-03T11:21:22.674Z,978.28
2018-10-03T11:22:32.185Z,978.27
2018-10-03T11:23:42.305Z,978.28
2018-10-03T11:24:53.341Z,978.26
2018-10-03T11:26:03.901Z,978.07
2018-10-03T11:27:13.942Z,978.29
2018-10-03T11:28:23.992Z,978.25
2018-10-03T11:29:33.514Z,978.16
2018-10-03T11:30:43.613Z,978.27
2018-10-03T11:31:53.667Z,978.3
2018-10-03T11:33:03.979Z,978.31
2018-10-03T11:34:13.494Z,978.36
2018-10-03T11:35:23.548Z,978.34
2018-10-03T11:36:33.639Z,978.39
2018-10-03T11:37:43.147Z,978.41
2018-10-03T11:38:52.920Z,978.42
2018-10-03T11:40:01.891Z,978.45
2018-10-03T11:41:11.695Z,978.4
2018-10-03T11:42:21.261Z,978.39
2018-10-03T11:43:31.305Z,978.39
2018-10-03T11:44:41.110Z,978.4
2018-10-03T11:45:50.629Z,978.39
2018-10-03T11:47:00.405Z,978.42
2018-10-03T11:48:10.505Z,978.39
2018-10-03T11:49:20.557Z,978.42
2018-10-03T11:50:30.636Z,978.39
2018-10-03T11:51:40.637Z,978.46
2018-10-03T11:52:50.753Z,978.49
2018-10-03T11:54:00.860Z,978.51
2018-10-03T11:55:10.645Z,978.53
2018-10-03T11:56:20.695Z,978.5
2018-10-03T11:57:30.207Z,978.54
2018-10-03T11:58:40.257Z,978.52
2018-10-03T11:59:50.350Z,978.51
2018-10-03T12:00:59.598Z,978.54
2018-10-03T12:02:09.655Z,978.5
2018-10-03T12:03:19.453Z,978.5
2018-10-03T12:04:30.210Z,978.56
2018-10-03T12:05:40.048Z,978.63
2018-10-03T12:06:50.098Z,978.61
2018-10-03T12:08:00.151Z,978.67
2018-10-03T12:09:10.256Z,978.65
2018-10-03T12:10:19.290Z,978.66
2018-10-03T12:11:29.119Z,978.66
2018-10-03T12:12:39.164Z,978.77
2018-10-03T12:13:49.278Z,978.78
2018-10-03T12:14:58.926Z,978.81
2018-10-03T12:16:08.981Z,978.83
2018-10-03T12:17:19.077Z,978.84
2018-10-03T12:18:28.859Z,978.84
2018-10-03T12:19:38.371Z,978.84
2018-10-03T12:20:48.475Z,978.87
2018-10-03T12:21:57.720Z,978.9
2018-10-03T12:23:07.873Z,978.92
2018-10-03T12:24:17.921Z,978.9
2018-10-03T12:25:27.167Z,978.87
2018-10-03T12:26:36.948Z,978.93
2018-10-03T12:27:46.462Z,978.64
2018-10-03T12:28:57.060Z,978.93
2018-10-03T12:30:06.841Z,978.93
2018-10-03T12:31:16.364Z,978.95
2018-10-03T12:32:26.414Z,978.92
2018-10-03T12:33:35.694Z,978.96
2018-10-03T12:34:45.715Z,978.98
2018-10-03T12:35:55.774Z,979
2018-10-03T12:37:05.826Z,979.03
2018-10-03T12:38:15.874Z,979.04
2018-10-03T12:39:25.390Z,979.03
2018-10-03T12:40:35.494Z,979.01
2018-10-03T12:41:45.545Z,979.02
2018-10-03T12:42:55.325Z,978.83
2018-10-03T12:44:05.108Z,978.79
2018-10-03T12:45:15.010Z,978.87
2018-10-03T12:46:25.182Z,978.76
2018-10-03T12:47:35.230Z,978.95
2018-10-03T12:48:45.285Z,978.75
2018-10-03T12:49:55.325Z,978.79
2018-10-03T12:51:04.832Z,978.79
2018-10-03T12:52:14.931Z,978.87
2018-10-03T12:53:24.472Z,978.84
2018-10-03T12:54:34.577Z,978.83
2018-10-03T12:55:44.963Z,978.8
2018-10-03T12:56:55.008Z,978.81
2018-10-03T12:58:04.832Z,978.86
2018-10-03T12:59:14.605Z,978.88
2018-10-03T13:00:24.110Z,978.87
2018-10-03T13:01:34.161Z,978.89
2018-10-03T13:02:44.210Z,978.93
2018-10-03T13:03:53.759Z,978.93
2018-10-03T13:05:03.547Z,978.93
2018-10-03T13:06:13.319Z,978.92
2018-10-03T13:07:23.355Z,978.9
2018-10-03T13:08:33.399Z,978.89
2018-10-03T13:09:43.443Z,978.92
2018-10-03T13:10:52.945Z,978.92
2018-10-03T13:12:02.449Z,978.93
2018-10-03T13:13:11.968Z,978.92
2018-10-03T13:14:21.747Z,979
2018-10-03T13:15:31.789Z,979
2018-10-03T13:16:41.296Z,978.98
2018-10-03T13:17:51.334Z,979.05
2018-10-03T13:19:00.841Z,979.13
2018-10-03T13:20:10.879Z,979.14
2018-10-03T13:21:20.651Z,979.14
2018-10-03T13:22:30.166Z,979.15
2018-10-03T13:23:39.402Z,979.2
2018-10-03T13:24:49.442Z,979.23
2018-10-03T13:25:59.210Z,979.26
2018-10-03T13:27:08.997Z,979.36
2018-10-03T13:28:19.042Z,979.38
2018-10-03T13:29:28.812Z,979.35
2018-10-03T13:30:38.913Z,979.32
2018-10-03T13:31:49.041Z,979.31
2018-10-03T13:32:59.139Z,979.26
2018-10-03T13:34:08.642Z,979.26
2018-10-03T13:35:18.410Z,979.26
2018-10-03T13:36:28.452Z,979.28
2018-10-03T13:37:38.485Z,979.32
2018-10-03T13:38:48.040Z,979.34
2018-10-03T13:39:58.083Z,979.34
2018-10-03T13:41:07.583Z,979.39
2018-10-03T13:42:17.448Z,979.41
2018-10-03T13:43:27.545Z,979.34
2018-10-03T13:44:37.365Z,979.36
2018-10-03T13:45:47.405Z,979.37
2018-10-03T13:46:57.178Z,979.45
2018-10-03T13:48:06.951Z,979.38
2018-10-03T13:49:16.453Z,979.44
2018-10-03T13:50:26.553Z,979.51
2018-10-03T13:51:36.355Z,979.49
2018-10-03T13:52:46.120Z,979.47
2018-10-03T13:53:56.154Z,979.46
2018-10-03T13:55:05.391Z,979.49
2018-10-03T13:56:15.239Z,979.47
2018-10-03T13:57:24.739Z,979.52
2018-10-03T13:58:34.514Z,979.59
2018-10-03T13:59:44.285Z,979.54
2018-10-03T14:00:54.054Z,979.54
2018-10-03T14:02:04.136Z,979.49
2018-10-03T14:03:13.364Z,979.51
2018-10-03T14:04:23.403Z,979.47
2018-10-03T14:05:33.442Z,979.44
2018-10-03T14:06:43.475Z,979.45
2018-10-03T14:07:53.555Z,979.45
2018-10-03T14:09:03.053Z,979.54
2018-10-03T14:10:13.093Z,979.61
2018-10-03T14:11:22.857Z,979.58
2018-10-03T14:12:32.893Z,979.64
2018-10-03T14:13:42.706Z,979.67
2018-10-03T14:14:52.752Z,979.69
2018-10-03T14:16:02.523Z,979.72
2018-10-03T14:17:12.018Z,979.72
2018-10-03T14:18:21.825Z,979.76
2018-10-03T14:19:31.982Z,979.78
2018-10-03T14:20:41.749Z,979.71
2018-10-03T14:21:51.797Z,979.76
2018-10-03T14:23:01.837Z,979.76
2018-10-03T14:24:11.873Z,979.78
2018-10-03T14:25:21.862Z,979.82
2018-10-03T14:26:31.934Z,979.85
2018-10-03T14:27:41.717Z,979.88
2018-10-03T14:28:51.753Z,979.89
2018-10-03T14:30:01.549Z,979.99
2018-10-03T14:31:11.617Z,979.99
2018-10-03T14:32:21.668Z,979.95
2018-10-03T14:33:31.434Z,979.99